Agency Village, South Dakota
Current Conditions -  °F | °C
As of 11:16 PM on Saturday 20 Dec 2014 (Local Time) from KETH Reporting Station
Haze Haze  
Wind Chill: 17°   Ceiling: 700
Heat Index: 28°   Visibility: 5mi
Dew Point: 27°   Wind: 14mph
Humidity: 93%   Direction: 150°SSE
Pressure: 29.95"   Gusts: NA
Location:  45.7041°N, 96.9842°W
Report Text: KETH 210516Z AUTO 15012KT 5SM BR OVC007 M02/M03 A2995 RMK AO2
Loading
Personal Weather Stations






























Interactive Weather Map New forecast layout! Learn more

10-Day Weather Forecast

Advertisements
Track Severe Weather on mobile